Powderville, Montana
Current Conditions -  °F | °C
As of 1:51 PM on Saturday 25 Oct 2014 (Local Time) from KBHK Reporting Station
Clear Clear  
Wind Chill: 66°   Ceiling: Unl
Heat Index: 66°   Visibility: 10mi
Dew Point: 33°   Wind: 17mph
Humidity: 29%   Direction: 130°SE
Pressure: 29.99"   Gusts: 26mph
Location:  45.76°N, 105.11°W
Report Text: KBHK 251951Z AUTO 13015G23KT 10SM CLR 19/01 A2999 RMK AO2 SLP156 T01890006
Loading
Personal Weather Stations






























Interactive Weather Map New forecast layout! Learn more

10-Day Weather Forecast

Advertisements
Track Severe Weather on mobile